sensor_id;sensor_type;location;lat;lon;timestamp;P1;durP1;ratioP1;P2;durP2;ratioP2
1054;SDS011;516;51.482;7.120;2024-01-07T00:04:43;24.47;;;15.17;;
1054;SDS011;516;51.482;7.120;2024-01-07T00:10:12;21.27;;;14.17;;
1054;SDS011;516;51.482;7.120;2024-01-07T00:15:42;29.77;;;16.50;;
1054;SDS011;516;51.482;7.120;2024-01-07T00:21:12;24.30;;;14.03;;
1054;SDS011;516;51.482;7.120;2024-01-07T00:26:41;20.17;;;13.70;;
1054;SDS011;516;51.482;7.120;2024-01-07T00:32:12;26.70;;;16.10;;
1054;SDS011;516;51.482;7.120;2024-01-07T00:37:42;29.33;;;15.90;;
1054;SDS011;516;51.482;7.120;2024-01-07T00:43:12;27.33;;;15.67;;
1054;SDS011;516;51.482;7.120;2024-01-07T00:48:42;21.90;;;15.07;;
1054;SDS011;516;51.482;7.120;2024-01-07T00:54:12;28.63;;;15.50;;
1054;SDS011;516;51.482;7.120;2024-01-07T00:59:42;28.70;;;16.10;;
1054;SDS011;516;51.482;7.120;2024-01-07T01:05:11;25.80;;;15.30;;
1054;SDS011;516;51.482;7.120;2024-01-07T01:10:41;23.10;;;15.00;;
1054;SDS011;516;51.482;7.120;2024-01-07T01:16:10;32.40;;;20.43;;
1054;SDS011;516;51.482;7.120;2024-01-07T01:21:40;33.13;;;19.87;;
1054;SDS011;516;51.482;7.120;2024-01-07T01:27:09;24.80;;;15.43;;
1054;SDS011;516;51.482;7.120;2024-01-07T01:32:39;30.13;;;18.20;;
1054;SDS011;516;51.482;7.120;2024-01-07T01:38:09;27.10;;;16.83;;
1054;SDS011;516;51.482;7.120;2024-01-07T01:43:38;30.50;;;17.77;;
1054;SDS011;516;51.482;7.120;2024-01-07T01:49:08;29.80;;;17.30;;
1054;SDS011;516;51.482;7.120;2024-01-07T01:54:39;33.23;;;17.90;;
1054;SDS011;516;51.482;7.120;2024-01-07T02:09:17;31.83;;;18.27;;
1054;SDS011;516;51.482;7.120;2024-01-07T02:14:46;28.03;;;17.80;;
1054;SDS011;516;51.482;7.120;2024-01-07T02:20:16;36.70;;;18.60;;
1054;SDS011;516;51.482;7.120;2024-01-07T02:25:46;26.33;;;16.83;;
1054;SDS011;516;51.482;7.120;2024-01-07T02:31:15;22.80;;;16.50;;
1054;SDS011;516;51.482;7.120;2024-01-07T02:36:45;29.70;;;17.90;;
1054;SDS011;516;51.482;7.120;2024-01-07T02:42:15;25.07;;;16.37;;
1054;SDS011;516;51.482;7.120;2024-01-07T02:47:44;25.50;;;15.97;;
1054;SDS011;516;51.482;7.120;2024-01-07T02:53:14;28.50;;;17.10;;
1054;SDS011;516;51.482;7.120;2024-01-07T02:58:44;32.80;;;19.57;;
1054;SDS011;516;51.482;7.120;2024-01-07T03:04:15;27.80;;;19.07;;
1054;SDS011;516;51.482;7.120;2024-01-07T03:09:45;26.43;;;17.77;;
1054;SDS011;516;51.482;7.120;2024-01-07T03:15:14;33.47;;;20.83;;
1054;SDS011;516;51.482;7.120;2024-01-07T03:20:44;31.27;;;17.13;;
1054;SDS011;516;51.482;7.120;2024-01-07T03:26:14;24.47;;;16.30;;
1054;SDS011;516;51.482;7.120;2024-01-07T03:31:43;27.00;;;15.50;;
1054;SDS011;516;51.482;7.120;2024-01-07T03:37:13;26.73;;;19.17;;
1054;SDS011;516;51.482;7.120;2024-01-07T03:42:43;32.03;;;18.20;;
1054;SDS011;516;51.482;7.120;2024-01-07T03:48:13;22.13;;;14.80;;
1054;SDS011;516;51.482;7.120;2024-01-07T03:53:42;27.90;;;18.53;;
1054;SDS011;516;51.482;7.120;2024-01-07T03:59:12;24.77;;;17.70;;
1054;SDS011;516;51.482;7.120;2024-01-07T04:10:30;27.93;;;15.50;;
1054;SDS011;516;51.482;7.120;2024-01-07T04:16:00;21.70;;;14.20;;
1054;SDS011;516;51.482;7.120;2024-01-07T04:21:29;22.47;;;16.43;;
1054;SDS011;516;51.482;7.120;2024-01-07T04:26:59;20.37;;;14.53;;
1054;SDS011;516;51.482;7.120;2024-01-07T04:32:28;24.80;;;15.60;;
1054;SDS011;516;51.482;7.120;2024-01-07T04:37:58;27.63;;;18.00;;
1054;SDS011;516;51.482;7.120;2024-01-07T04:43:28;22.17;;;17.20;;
1054;SDS011;516;51.482;7.120;2024-01-07T04:48:57;21.77;;;15.03;;
1054;SDS011;516;51.482;7.120;2024-01-07T04:54:28;27.57;;;18.30;;
1054;SDS011;516;51.482;7.120;2024-01-07T04:59:58;24.90;;;15.80;;
1054;SDS011;516;51.482;7.120;2024-01-07T05:14:35;27.43;;;17.33;;
1054;SDS011;516;51.482;7.120;2024-01-07T05:20:06;24.87;;;19.00;;
1054;SDS011;516;51.482;7.120;2024-01-07T05:25:37;28.17;;;15.47;;
1054;SDS011;516;51.482;7.120;2024-01-07T05:31:16;24.50;;;18.90;;
1054;SDS011;516;51.482;7.120;2024-01-07T05:36:46;27.97;;;16.77;;
1054;SDS011;516;51.482;7.120;2024-01-07T05:42:15;28.20;;;16.90;;
1054;SDS011;516;51.482;7.120;2024-01-07T05:47:45;24.90;;;17.73;;
1054;SDS011;516;51.482;7.120;2024-01-07T05:53:15;22.83;;;15.70;;
1054;SDS011;516;51.482;7.120;2024-01-07T05:58:45;26.73;;;17.33;;
1054;SDS011;516;51.482;7.120;2024-01-07T06:04:15;23.30;;;15.50;;
1054;SDS011;516;51.482;7.120;2024-01-07T06:09:44;26.60;;;16.50;;
1054;SDS011;516;51.482;7.120;2024-01-07T06:15:14;24.73;;;17.20;;
1054;SDS011;516;51.482;7.120;2024-01-07T06:20:44;23.53;;;16.30;;
1054;SDS011;516;51.482;7.120;2024-01-07T06:26:14;24.57;;;17.07;;
1054;SDS011;516;51.482;7.120;2024-01-07T06:31:44;23.13;;;16.20;;
1054;SDS011;516;51.482;7.120;2024-01-07T06:37:14;27.43;;;15.80;;
1054;SDS011;516;51.482;7.120;2024-01-07T06:42:44;21.77;;;14.73;;
1054;SDS011;516;51.482;7.120;2024-01-07T06:48:16;23.70;;;16.83;;
1054;SDS011;516;51.482;7.120;2024-01-07T06:53:46;26.70;;;18.63;;
1054;SDS011;516;51.482;7.120;2024-01-07T06:59:15;21.73;;;16.43;;
1054;SDS011;516;51.482;7.120;2024-01-07T07:10:52;26.50;;;19.63;;
1054;SDS011;516;51.482;7.120;2024-01-07T07:16:22;27.57;;;16.77;;
1054;SDS011;516;51.482;7.120;2024-01-07T07:21:52;23.80;;;16.20;;
1054;SDS011;516;51.482;7.120;2024-01-07T07:27:22;19.20;;;13.57;;
1054;SDS011;516;51.482;7.120;2024-01-07T07:32:53;19.37;;;12.97;;
1054;SDS011;516;51.482;7.120;2024-01-07T07:38:23;19.60;;;15.60;;
1054;SDS011;516;51.482;7.120;2024-01-07T07:43:52;17.93;;;13.17;;
1054;SDS011;516;51.482;7.120;2024-01-07T07:49:22;16.93;;;14.23;;
1054;SDS011;516;51.482;7.120;2024-01-07T07:54:52;17.87;;;12.23;;
1054;SDS011;516;51.482;7.120;2024-01-07T08:00:22;21.43;;;13.50;;
1054;SDS011;516;51.482;7.120;2024-01-07T08:14:53;17.87;;;14.23;;
1054;SDS011;516;51.482;7.120;2024-01-07T08:20:23;23.03;;;16.23;;
1054;SDS011;516;51.482;7.120;2024-01-07T08:25:53;20.33;;;14.00;;
1054;SDS011;516;51.482;7.120;2024-01-07T08:31:22;20.20;;;13.53;;
1054;SDS011;516;51.482;7.120;2024-01-07T08:36:52;23.70;;;15.80;;
1054;SDS011;516;51.482;7.120;2024-01-07T08:42:24;18.97;;;14.43;;
1054;SDS011;516;51.482;7.120;2024-01-07T08:47:53;24.73;;;13.93;;
1054;SDS011;516;51.482;7.120;2024-01-07T08:53:23;14.80;;;11.43;;
1054;SDS011;516;51.482;7.120;2024-01-07T08:58:53;16.93;;;13.73;;
1054;SDS011;516;51.482;7.120;2024-01-07T09:04:22;16.70;;;13.20;;
1054;SDS011;516;51.482;7.120;2024-01-07T09:09:52;20.17;;;11.60;;
1054;SDS011;516;51.482;7.120;2024-01-07T09:15:24;19.97;;;13.80;;
1054;SDS011;516;51.482;7.120;2024-01-07T09:20:54;17.90;;;14.23;;
1054;SDS011;516;51.482;7.120;2024-01-07T09:26:23;13.77;;;12.33;;
1054;SDS011;516;51.482;7.120;2024-01-07T09:31:53;17.03;;;11.70;;
1054;SDS011;516;51.482;7.120;2024-01-07T09:37:23;12.37;;;9.80;;
1054;SDS011;516;51.482;7.120;2024-01-07T09:42:55;22.87;;;16.43;;
1054;SDS011;516;51.482;7.120;2024-01-07T09:48:25;17.03;;;13.13;;
1054;SDS011;516;51.482;7.120;2024-01-07T09:53:57;12.90;;;9.93;;
1054;SDS011;516;51.482;7.120;2024-01-07T09:59:28;14.00;;;10.27;;
1054;SDS011;516;51.482;7.120;2024-01-07T10:04:58;14.87;;;9.90;;
1054;SDS011;516;51.482;7.120;2024-01-07T10:10:28;12.77;;;10.43;;
1054;SDS011;516;51.482;7.120;2024-01-07T10:15:57;13.03;;;9.40;;
1054;SDS011;516;51.482;7.120;2024-01-07T10:21:27;15.00;;;11.37;;
1054;SDS011;516;51.482;7.120;2024-01-07T10:26:57;11.57;;;9.90;;
1054;SDS011;516;51.482;7.120;2024-01-07T10:32:26;14.93;;;9.90;;
1054;SDS011;516;51.482;7.120;2024-01-07T10:37:57;11.47;;;8.40;;
1054;SDS011;516;51.482;7.120;2024-01-07T10:43:29;10.13;;;9.13;;
1054;SDS011;516;51.482;7.120;2024-01-07T10:48:59;9.17;;;7.80;;
1054;SDS011;516;51.482;7.120;2024-01-07T10:54:29;11.80;;;8.70;;
1054;SDS011;516;51.482;7.120;2024-01-07T10:59:59;10.07;;;7.97;;
1054;SDS011;516;51.482;7.120;2024-01-07T11:11:00;9.97;;;8.20;;
1054;SDS011;516;51.482;7.120;2024-01-07T11:22:25;8.33;;;6.40;;
1054;SDS011;516;51.482;7.120;2024-01-07T11:27:58;8.03;;;6.97;;
1054;SDS011;516;51.482;7.120;2024-01-07T11:33:31;11.13;;;8.20;;
1054;SDS011;516;51.482;7.120;2024-01-07T11:39:01;9.83;;;7.03;;
1054;SDS011;516;51.482;7.120;2024-01-07T11:44:33;8.63;;;6.73;;
1054;SDS011;516;51.482;7.120;2024-01-07T11:50:05;7.03;;;6.43;;
1054;SDS011;516;51.482;7.120;2024-01-07T11:55:35;8.20;;;6.97;;
1054;SDS011;516;51.482;7.120;2024-01-07T12:01:05;7.43;;;6.60;;
1054;SDS011;516;51.482;7.120;2024-01-07T12:06:34;11.43;;;7.73;;
1054;SDS011;516;51.482;7.120;2024-01-07T12:12:04;6.90;;;5.60;;
1054;SDS011;516;51.482;7.120;2024-01-07T12:26:44;7.33;;;6.73;;
1054;SDS011;516;51.482;7.120;2024-01-07T12:32:15;8.23;;;7.40;;
1054;SDS011;516;51.482;7.120;2024-01-07T12:37:47;8.73;;;7.93;;
1054;SDS011;516;51.482;7.120;2024-01-07T12:43:17;6.80;;;6.20;;
1054;SDS011;516;51.482;7.120;2024-01-07T12:48:47;7.33;;;6.70;;
1054;SDS011;516;51.482;7.120;2024-01-07T12:54:17;8.47;;;7.50;;
1054;SDS011;516;51.482;7.120;2024-01-07T12:59:47;8.50;;;7.60;;
1054;SDS011;516;51.482;7.120;2024-01-07T13:05:17;8.50;;;6.90;;
1054;SDS011;516;51.482;7.120;2024-01-07T13:10:47;10.37;;;7.00;;
1054;SDS011;516;51.482;7.120;2024-01-07T13:16:17;7.07;;;6.47;;
1054;SDS011;516;51.482;7.120;2024-01-07T13:21:47;9.27;;;7.07;;
1054;SDS011;516;51.482;7.120;2024-01-07T13:27:17;8.63;;;7.90;;
1054;SDS011;516;51.482;7.120;2024-01-07T13:32:47;8.67;;;7.87;;
1054;SDS011;516;51.482;7.120;2024-01-07T13:38:18;8.37;;;7.67;;
1054;SDS011;516;51.482;7.120;2024-01-07T13:43:48;8.50;;;6.90;;
1054;SDS011;516;51.482;7.120;2024-01-07T13:49:18;9.10;;;7.60;;
1054;SDS011;516;51.482;7.120;2024-01-07T13:54:48;8.30;;;7.50;;
1054;SDS011;516;51.482;7.120;2024-01-07T14:00:17;5.63;;;5.13;;
1054;SDS011;516;51.482;7.120;2024-01-07T14:05:47;6.93;;;6.53;;
1054;SDS011;516;51.482;7.120;2024-01-07T14:11:17;6.53;;;6.03;;
1054;SDS011;516;51.482;7.120;2024-01-07T14:16:47;6.80;;;6.27;;
1054;SDS011;516;51.482;7.120;2024-01-07T14:31:21;4.90;;;4.50;;
1054;SDS011;516;51.482;7.120;2024-01-07T14:36:51;5.00;;;4.60;;
1054;SDS011;516;51.482;7.120;2024-01-07T14:42:20;4.43;;;4.03;;
1054;SDS011;516;51.482;7.120;2024-01-07T14:47:50;6.10;;;5.20;;
1054;SDS011;516;51.482;7.120;2024-01-07T14:53:20;5.50;;;5.00;;
1054;SDS011;516;51.482;7.120;2024-01-07T14:58:49;6.00;;;5.47;;
1054;SDS011;516;51.482;7.120;2024-01-07T15:04:19;6.20;;;5.70;;
1054;SDS011;516;51.482;7.120;2024-01-07T15:09:49;6.00;;;5.60;;
1054;SDS011;516;51.482;7.120;2024-01-07T15:15:19;5.30;;;4.90;;
1054;SDS011;516;51.482;7.120;2024-01-07T15:20:50;7.50;;;4.80;;
1054;SDS011;516;51.482;7.120;2024-01-07T15:26:20;4.50;;;4.20;;
1054;SDS011;516;51.482;7.120;2024-01-07T15:31:50;4.93;;;4.63;;
1054;SDS011;516;51.482;7.120;2024-01-07T15:37:19;5.53;;;4.90;;
1054;SDS011;516;51.482;7.120;2024-01-07T15:42:50;5.83;;;5.10;;
1054;SDS011;516;51.482;7.120;2024-01-07T15:48:19;6.20;;;5.73;;
1054;SDS011;516;51.482;7.120;2024-01-07T15:53:49;6.23;;;5.60;;
1054;SDS011;516;51.482;7.120;2024-01-07T15:59:19;5.97;;;5.47;;
1054;SDS011;516;51.482;7.120;2024-01-07T16:04:48;6.10;;;5.63;;
1054;SDS011;516;51.482;7.120;2024-01-07T16:10:18;6.60;;;6.00;;
1054;SDS011;516;51.482;7.120;2024-01-07T16:15:48;6.90;;;6.40;;
1054;SDS011;516;51.482;7.120;2024-01-07T16:21:17;5.97;;;5.47;;
1054;SDS011;516;51.482;7.120;2024-01-07T16:26:49;5.03;;;4.73;;
1054;SDS011;516;51.482;7.120;2024-01-07T16:32:18;5.80;;;5.30;;
1054;SDS011;516;51.482;7.120;2024-01-07T16:37:48;5.60;;;5.17;;
1054;SDS011;516;51.482;7.120;2024-01-07T16:43:18;6.37;;;5.80;;
1054;SDS011;516;51.482;7.120;2024-01-07T16:48:48;5.67;;;5.17;;
1054;SDS011;516;51.482;7.120;2024-01-07T16:54:18;6.07;;;5.57;;
1054;SDS011;516;51.482;7.120;2024-01-07T16:59:48;6.00;;;5.50;;
1054;SDS011;516;51.482;7.120;2024-01-07T17:05:19;6.07;;;5.53;;
1054;SDS011;516;51.482;7.120;2024-01-07T17:10:49;7.13;;;6.43;;
1054;SDS011;516;51.482;7.120;2024-01-07T17:16:18;7.10;;;6.40;;
1054;SDS011;516;51.482;7.120;2024-01-07T17:27:57;9.20;;;7.23;;
1054;SDS011;516;51.482;7.120;2024-01-07T17:33:26;8.50;;;6.70;;
1054;SDS011;516;51.482;7.120;2024-01-07T17:38:56;6.57;;;5.97;;
1054;SDS011;516;51.482;7.120;2024-01-07T17:44:26;7.60;;;6.87;;
1054;SDS011;516;51.482;7.120;2024-01-07T17:49:55;32.50;;;12.60;;
1054;SDS011;516;51.482;7.120;2024-01-07T17:55:25;8.47;;;7.63;;
1054;SDS011;516;51.482;7.120;2024-01-07T18:00:55;6.07;;;5.57;;
1054;SDS011;516;51.482;7.120;2024-01-07T18:06:26;7.87;;;7.13;;
1054;SDS011;516;51.482;7.120;2024-01-07T18:11:56;15.50;;;6.73;;
1054;SDS011;516;51.482;7.120;2024-01-07T18:17:25;6.57;;;5.97;;
1054;SDS011;516;51.482;7.120;2024-01-07T18:29:02;7.37;;;6.77;;
1054;SDS011;516;51.482;7.120;2024-01-07T18:34:31;9.90;;;7.60;;
1054;SDS011;516;51.482;7.120;2024-01-07T18:40:01;9.47;;;7.73;;
1054;SDS011;516;51.482;7.120;2024-01-07T18:45:13;9.17;;;8.13;;
1054;SDS011;516;51.482;7.120;2024-01-07T18:50:43;7.73;;;6.87;;
1054;SDS011;516;51.482;7.120;2024-01-07T18:56:13;21.30;;;12.07;;
1054;SDS011;516;51.482;7.120;2024-01-07T19:01:43;7.70;;;7.00;;
1054;SDS011;516;51.482;7.120;2024-01-07T19:07:16;9.50;;;8.30;;
1054;SDS011;516;51.482;7.120;2024-01-07T19:12:46;10.37;;;9.30;;
1054;SDS011;516;51.482;7.120;2024-01-07T19:18:15;9.13;;;8.10;;
1054;SDS011;516;51.482;7.120;2024-01-07T19:32:55;10.10;;;8.63;;
1054;SDS011;516;51.482;7.120;2024-01-07T19:38:25;14.17;;;10.80;;
1054;SDS011;516;51.482;7.120;2024-01-07T19:43:58;9.83;;;7.33;;
1054;SDS011;516;51.482;7.120;2024-01-07T19:49:28;9.60;;;8.37;;
1054;SDS011;516;51.482;7.120;2024-01-07T19:54:58;10.50;;;8.80;;
1054;SDS011;516;51.482;7.120;2024-01-07T20:00:27;11.73;;;10.27;;
1054;SDS011;516;51.482;7.120;2024-01-07T20:05:57;13.03;;;9.40;;
1054;SDS011;516;51.482;7.120;2024-01-07T20:11:27;12.93;;;9.33;;
1054;SDS011;516;51.482;7.120;2024-01-07T20:16:56;18.80;;;10.13;;
1054;SDS011;516;51.482;7.120;2024-01-07T20:22:26;11.57;;;8.70;;
1054;SDS011;516;51.482;7.120;2024-01-07T20:27:56;19.63;;;13.03;;
1054;SDS011;516;51.482;7.120;2024-01-07T20:33:26;14.30;;;9.13;;
1054;SDS011;516;51.482;7.120;2024-01-07T20:38:56;13.43;;;10.43;;
1054;SDS011;516;51.482;7.120;2024-01-07T20:44:26;15.40;;;10.03;;
1054;SDS011;516;51.482;7.120;2024-01-07T20:49:55;14.93;;;10.20;;
1054;SDS011;516;51.482;7.120;2024-01-07T20:55:25;13.47;;;9.77;;
1054;SDS011;516;51.482;7.120;2024-01-07T21:00:56;13.50;;;8.97;;
1054;SDS011;516;51.482;7.120;2024-01-07T21:06:25;13.73;;;8.73;;
1054;SDS011;516;51.482;7.120;2024-01-07T21:11:55;14.53;;;10.13;;
1054;SDS011;516;51.482;7.120;2024-01-07T21:17:24;12.30;;;9.47;;
1054;SDS011;516;51.482;7.120;2024-01-07T21:22:54;8.83;;;7.90;;
1054;SDS011;516;51.482;7.120;2024-01-07T21:37:31;9.77;;;7.63;;
1054;SDS011;516;51.482;7.120;2024-01-07T21:43:01;9.40;;;7.60;;
1054;SDS011;516;51.482;7.120;2024-01-07T21:48:31;7.30;;;6.70;;
1054;SDS011;516;51.482;7.120;2024-01-07T21:54:02;8.63;;;6.73;;
1054;SDS011;516;51.482;7.120;2024-01-07T21:59:32;7.40;;;6.57;;
1054;SDS011;516;51.482;7.120;2024-01-07T22:05:02;7.47;;;6.60;;
1054;SDS011;516;51.482;7.120;2024-01-07T22:10:31;7.93;;;7.13;;
1054;SDS011;516;51.482;7.120;2024-01-07T22:16:01;6.13;;;5.63;;
1054;SDS011;516;51.482;7.120;2024-01-07T22:21:31;6.93;;;6.23;;
1054;SDS011;516;51.482;7.120;2024-01-07T22:27:01;7.87;;;7.07;;
1054;SDS011;516;51.482;7.120;2024-01-07T22:32:30;7.20;;;6.60;;
1054;SDS011;516;51.482;7.120;2024-01-07T22:38:00;6.50;;;5.90;;
1054;SDS011;516;51.482;7.120;2024-01-07T22:43:30;6.83;;;6.23;;
1054;SDS011;516;51.482;7.120;2024-01-07T22:49:00;9.13;;;6.70;;
1054;SDS011;516;51.482;7.120;2024-01-07T22:54:30;8.20;;;7.40;;
1054;SDS011;516;51.482;7.120;2024-01-07T23:00:02;6.57;;;5.97;;
1054;SDS011;516;51.482;7.120;2024-01-07T23:05:34;5.83;;;5.43;;
1054;SDS011;516;51.482;7.120;2024-01-07T23:11:04;7.17;;;6.67;;
1054;SDS011;516;51.482;7.120;2024-01-07T23:16:33;6.13;;;5.73;;
1054;SDS011;516;51.482;7.120;2024-01-07T23:22:03;5.60;;;5.23;;
1054;SDS011;516;51.482;7.120;2024-01-07T23:27:33;6.93;;;6.40;;
1054;SDS011;516;51.482;7.120;2024-01-07T23:33:02;6.60;;;6.00;;
1054;SDS011;516;51.482;7.120;2024-01-07T23:38:35;11.17;;;6.63;;
1054;SDS011;516;51.482;7.120;2024-01-07T23:44:05;7.90;;;7.20;;
1054;SDS011;516;51.482;7.120;2024-01-07T23:49:34;8.00;;;7.10;;
1054;SDS011;516;51.482;7.120;2024-01-07T23:55:04;9.13;;;8.30;;
